Time;durP1;ratioP1;P1;durP2;ratioP2;P2;SDS_P1;SDS_P2;PMS_P1;PMS_P2;Temp;Humidity;BMP_temperature;BMP_pressure;BME280_temperature;BME280_humidity;BME280_pressure;Samples;Min_cycle;Max_cycle;Signal;HPM_P1;HPM_P2
2023/02/09 00:00:16;;;;;;;;;;;;;;;-3.41;66.17;102801.36;113159;1239;21948;-80
2023/02/09 00:03:11;;;;;;;85.20;58.50;;;;;;;-3.50;66.37;102799.15;113029;1239;21943;-81
2023/02/09 00:05:40;;;;;;;99.30;66.90;;;;;;;-3.52;66.50;102799.35;112663;1239;21965;-80
2023/02/09 00:08:09;;;;;;;87.20;62.50;;;;;;;-3.53;66.48;102803.21;112295;1244;21991;-79
2023/02/09 00:10:39;;;;;;;86.30;60.00;;;;;;;-3.54;66.62;102801.46;112450;1244;21950;-80
2023/02/09 00:13:22;;;;;;;85.90;63.40;;;;;;;-3.55;66.53;102798.36;112711;1239;22073;-82
2023/02/09 00:16:03;;;;;;;90.30;60.40;;;;;;;-3.56;66.53;102797.14;112825;1239;21954;-79
2023/02/09 00:18:36;;;;;;;84.10;58.30;;;;;;;-3.58;66.57;102789.15;112838;1239;22819;-80
2023/02/09 00:21:16;;;;;;;86.40;60.00;;;;;;;-3.61;66.66;102787.60;112776;1239;23014;-79
2023/02/09 00:23:51;;;;;;;89.10;61.80;;;;;;;-3.63;66.72;102792.95;113041;1239;21972;-80
2023/02/09 00:26:27;;;;;;;87.50;63.30;;;;;;;-3.65;66.81;102793.82;113285;1235;21976;-79
2023/02/09 00:29:09;;;;;;;90.00;62.00;;;;;;;-3.67;66.85;102793.89;113564;1234;22109;-80
2023/02/09 00:31:39;;;;;;;85.50;60.00;;;;;;;-3.67;66.87;102792.84;113602;1234;21960;-80
2023/02/09 00:34:10;;;;;;;85.80;61.30;;;;;;;-3.66;66.93;102790.02;113051;1234;21954;-79
2023/02/09 00:36:42;;;;;;;87.80;60.40;;;;;;;-3.69;66.95;102789.36;113279;1234;22071;-81
2023/02/09 00:39:20;;;;;;;83.90;61.30;;;;;;;-3.72;67.00;102791.23;113460;1234;23600;-78
2023/02/09 00:42:06;;;;;;;84.40;60.00;;;;;;;-3.73;66.97;102796.61;113502;1234;23793;-80
2023/02/09 00:44:39;;;;;;;89.90;61.60;;;;;;;-3.73;66.91;102797.14;113456;1234;22934;-80
2023/02/09 00:47:17;;;;;;;88.70;64.90;;;;;;;-3.73;67.00;102790.81;113082;1234;21931;-81
2023/02/09 00:50:05;;;;;;;104.20;70.80;;;;;;;-3.77;67.02;102790.24;113072;1236;23672;-79
2023/02/09 00:52:39;;;;;;;83.60;61.10;;;;;;;-3.82;67.16;102784.33;113398;1237;22001;-78
2023/02/09 00:55:09;;;;;;;88.20;62.60;;;;;;;-3.85;67.26;102784.30;112825;1237;21981;-79
2023/02/09 00:57:41;;;;;;;90.10;62.90;;;;;;;-3.89;67.26;102786.98;113174;1237;21997;-79
2023/02/09 01:00:21;;;;;;;88.50;63.80;;;;;;;-3.91;67.34;102788.55;112607;1242;21979;-79
2023/02/09 01:02:51;;;;;;;84.60;60.60;;;;;;;-3.93;67.45;102787.44;112274;1242;21954;-80
2023/02/09 01:05:26;;;;;;;87.70;62.10;;;;;;;-3.96;67.56;102781.31;111975;1249;21977;-79
2023/02/09 01:07:55;;;;;;;87.60;64.00;;;;;;;-3.99;67.54;102778.20;111745;1249;21964;-79
2023/02/09 01:10:24;;;;;;;86.40;62.70;;;;;;;-4.02;67.66;102778.19;111770;1249;23619;-79
2023/02/09 01:12:56;;;;;;;86.80;62.80;;;;;;;-4.05;67.67;102780.77;111765;1246;21970;-78
2023/02/09 01:15:25;;;;;;;88.30;63.70;;;;;;;-4.06;67.72;102782.05;111801;1247;22009;-79
2023/02/09 01:18:06;;;;;;;80.40;58.40;;;;;;;-4.04;67.77;102778.89;112415;1241;21974;-79
2023/02/09 01:20:35;;;;;;;90.70;62.50;;;;;;;-4.03;67.78;102778.99;112941;1241;21964;-78
2023/02/09 01:23:04;;;;;;;85.20;61.80;;;;;;;-4.00;67.82;102779.31;111879;1240;23596;-78
2023/02/09 01:25:33;;;;;;;88.30;63.50;;;;;;;-3.96;67.90;102773.30;112556;1241;22695;-78
2023/02/09 01:28:10;;;;;;;93.30;63.90;;;;;;;-3.94;67.84;102767.64;112858;1240;23645;-79
2023/02/09 01:30:43;;;;;;;97.60;66.00;;;;;;;-3.95;67.72;102765.52;112609;1240;21979;-80
2023/02/09 01:33:17;;;;;;;88.40;62.90;;;;;;;-3.95;67.79;102760.25;112812;1240;21960;-78
2023/02/09 01:35:59;;;;;;;88.60;62.20;;;;;;;-3.97;67.68;102754.00;112762;1237;23050;-79
2023/02/09 01:41:25;;;;;;;87.90;58.90;;;;;;;-4.11;67.68;102745.84;112535;1240;21943;-79
2023/02/09 01:44:30;;;;;;;88.80;62.90;;;;;;;-4.17;67.64;102742.61;112519;1240;22958;-79
2023/02/09 01:47:05;;;;;;;92.00;62.20;;;;;;;-4.18;67.84;102743.18;113172;1240;21936;-81
2023/02/09 01:49:34;;;;;;;92.40;64.20;;;;;;;-4.17;67.99;102740.89;112180;1245;24165;-81
2023/02/09 01:52:14;;;;;;;89.50;64.20;;;;;;;-4.16;68.00;102737.71;112290;1245;23591;-81
2023/02/09 01:55:03;;;;;;;88.10;63.20;;;;;;;-4.18;68.02;102729.81;112061;1245;22986;-80
2023/02/09 01:57:53;;;;;;;90.30;63.30;;;;;;;-4.17;68.09;102727.98;112015;1245;24302;-78
2023/02/09 02:00:39;;;;;;;88.20;64.60;;;;;;;-4.16;68.09;102723.63;112090;1245;21975;-79
2023/02/09 02:03:17;;;;;;;89.70;65.10;;;;;;;-4.17;68.11;102718.60;112242;1245;22046;-79
2023/02/09 02:05:59;;;;;;;95.50;69.70;;;;;;;-4.21;68.08;102716.00;112130;1245;21954;-81
2023/02/09 02:08:43;;;;;;;86.40;62.40;;;;;;;-4.25;68.04;102715.59;112497;1240;21972;-80
2023/02/09 02:11:16;;;;;;;87.90;62.80;;;;;;;-4.29;68.17;102710.23;113014;1239;21914;-80
2023/02/09 02:14:03;;;;;;;;;;;;;;;;;;;;;
2023/02/09 02:17:06;;;;;;;87.80;61.50;;;;;;;-4.42;68.32;102702.63;112318;1244;21951;-80
2023/02/09 02:20:30;;;;;;;85.00;60.60;;;;;;;-4.44;68.49;102699.09;113082;1239;22841;-80
2023/02/09 02:23:26;;;;;;;88.60;61.40;;;;;;;-4.50;68.58;102691.95;113264;1239;21980;-82
2023/02/09 02:26:44;;;;;;;88.50;60.90;;;;;;;-4.54;68.75;102687.15;113073;1241;21956;-81
2023/02/09 02:29:46;;;;;;;87.90;61.80;;;;;;;-4.58;68.85;102678.03;113149;1240;21987;-80
2023/02/09 02:32:50;;;;;;;90.60;61.90;;;;;;;-4.61;68.95;102674.61;112809;1240;23040;-80
2023/02/09 02:35:46;;;;;;;90.00;62.00;;;;;;;-4.65;68.97;102667.58;112224;1245;21958;-81
2023/02/09 02:38:35;;;;;;;82.90;61.40;;;;;;;-4.68;69.09;102666.08;111785;1249;23021;-80
2023/02/09 02:44:29;;;;;;;91.10;61.30;;;;;;;-4.68;69.12;102652.31;111151;1258;23054;-80
2023/02/09 02:47:06;;;;;;;86.20;63.30;;;;;;;-4.64;69.34;102650.15;111068;1260;22297;-80
2023/02/09 02:49:41;;;;;;;84.80;59.00;;;;;;;-4.61;69.33;102644.23;111105;1260;22275;-79
2023/02/09 02:52:16;;;;;;;84.60;59.50;;;;;;;-4.58;69.45;102636.06;111108;1259;22372;-80
2023/02/09 02:55:14;;;;;;;87.80;60.30;;;;;;;-4.56;69.37;102636.73;111246;1259;23727;-80
2023/02/09 02:57:55;;;;;;;87.20;62.30;;;;;;;-4.56;69.49;102626.88;110765;1265;21999;-80
2023/02/09 03:00:37;;;;;;;84.80;61.10;;;;;;;-4.52;69.40;102626.08;110239;1268;23737;-80
2023/02/09 03:03:14;;;;;;;90.50;63.70;;;;;;;-4.53;69.28;102623.80;110043;1261;21986;-80
2023/02/09 03:05:44;;;;;;;87.60;62.50;;;;;;;-4.53;69.46;102625.84;110088;1266;22004;-82
2023/02/09 03:08:16;;;;;;;86.90;61.10;;;;;;;-4.54;69.34;102623.07;109872;1266;22002;-80
2023/02/09 03:11:18;;;;;;;82.60;63.80;;;;;;;-4.37;69.32;102624.92;108369;1276;544396;-81
2023/02/09 03:14:28;;;;;;;82.20;59.20;;;;;;;-4.43;69.17;102627.45;110674;1257;22130;-78
2023/02/09 03:17:39;;;;;;;86.10;60.40;;;;;;;-4.49;69.31;102620.98;111019;1260;21963;-80
2023/02/09 03:20:54;;;;;;;85.50;60.00;;;;;;;-4.55;69.38;102618.09;110679;1260;22115;-80
2023/02/09 03:23:49;;;;;;;87.10;63.40;;;;;;;-4.59;69.52;102612.89;110362;1266;23702;-80
2023/02/09 03:26:38;;;;;;;87.10;63.20;;;;;;;-4.60;69.64;102609.92;108782;1264;24389;-80
2023/02/09 03:29:21;;;;;;;90.80;62.80;;;;;;;-4.63;69.66;102602.80;110455;1264;21983;-79
2023/02/09 03:31:57;;;;;;;90.20;64.70;;;;;;;-4.65;69.67;102596.58;109868;1268;22241;-80
2023/02/09 03:34:32;;;;;;;88.60;63.30;;;;;;;-4.66;69.79;102593.77;110106;1268;22440;-81
2023/02/09 03:37:08;;;;;;;86.70;64.70;;;;;;;-4.68;69.71;102587.70;109790;1268;22136;-79
2023/02/09 03:39:45;;;;;;;97.60;68.60;;;;;;;-4.72;69.88;102585.98;109938;1268;22451;-80
2023/02/09 03:42:15;;;;;;;90.60;65.70;;;;;;;-4.77;69.75;102584.14;110384;1265;23426;-78
2023/02/09 03:44:46;;;;;;;93.80;68.40;;;;;;;-4.79;69.82;102579.08;110452;1265;21984;-80
2023/02/09 03:47:22;;;;;;;93.70;70.10;;;;;;;-4.78;69.83;102583.23;110270;1265;23621;-80
2023/02/09 03:49:56;;;;;;;96.90;71.80;;;;;;;-4.79;69.94;102582.30;110567;1260;23895;-78
2023/02/09 03:52:29;;;;;;;98.40;68.20;;;;;;;-4.83;69.94;102575.13;110747;1260;23567;-78
2023/02/09 03:55:02;;;;;;;91.70;69.00;;;;;;;-4.87;70.02;102568.23;109915;1266;24066;-78
2023/02/09 03:57:35;;;;;;;97.50;70.90;;;;;;;-4.89;70.11;102560.64;110551;1259;21985;-79
2023/02/09 04:00:12;;;;;;;91.00;67.90;;;;;;;-4.91;70.28;102560.70;110674;1259;21976;-79
2023/02/09 04:02:46;;;;;;;97.10;69.30;;;;;;;-4.94;70.42;102557.81;110585;1259;21970;-80
2023/02/09 04:05:16;;;;;;;104.00;73.40;;;;;;;-4.96;70.40;102553.41;111078;1259;21960;-78
2023/02/09 04:07:48;;;;;;;100.20;71.00;;;;;;;-4.97;70.37;102553.02;110804;1259;21978;-79
2023/02/09 04:10:18;;;;;;;97.00;69.80;;;;;;;-4.98;70.49;102551.44;110313;1264;22896;-80
2023/02/09 04:12:48;;;;;;;91.90;69.20;;;;;;;-4.98;70.56;102551.64;109767;1264;21971;-76
2023/02/09 04:15:18;;;;;;;95.80;71.30;;;;;;;-4.98;70.63;102552.15;110182;1264;23592;-77
2023/02/09 04:17:54;;;;;;;95.80;71.30;;;;;;;-4.99;70.81;102545.27;110240;1262;23068;-78
2023/02/09 04:20:24;;;;;;;;;;;;;;;-4.98;70.91;102539.92;110433;1264;23029;-77
2023/02/09 04:22:54;;;;;;;115.20;75.00;;;;;;;-5.03;71.13;102535.52;110463;1264;21995;-77
2023/02/09 04:25:24;;;;;;;102.70;74.00;;;;;;;-5.03;71.05;102528.04;110415;1264;21995;-80
2023/02/09 04:27:55;;;;;;;105.90;75.00;;;;;;;-5.03;70.98;102528.69;110428;1258;21973;-80
2023/02/09 04:30:31;;;;;;;114.60;81.70;;;;;;;-5.06;70.96;102518.84;110990;1258;21970;-79
2023/02/09 04:33:09;;;;;;;106.40;77.60;;;;;;;-5.08;70.92;102513.95;110986;1258;22853;-79
2023/02/09 04:35:47;;;;;;;103.90;76.50;;;;;;;-5.10;70.98;102512.50;110845;1258;23040;-79
2023/02/09 04:38:19;;;;;;;112.40;78.50;;;;;;;-5.12;71.00;102511.38;110827;1261;21990;-79
2023/02/09 04:41:07;;;;;;;108.20;78.30;;;;;;;-5.13;71.03;102511.66;111017;1257;21977;-79
2023/02/09 04:43:46;;;;;;;111.70;80.70;;;;;;;-5.13;71.02;102512.52;110862;1261;21987;-80
2023/02/09 04:46:19;;;;;;;;;;;;;;;-5.10;71.02;102513.36;110517;1266;23577;-81
2023/02/09 04:48:53;;;;;;;147.80;102.00;;;;;;;-5.13;71.10;102506.08;110341;1266;21995;-81
2023/02/09 04:51:34;;;;;;;138.20;98.50;;;;;;;-5.09;71.20;102499.31;110405;1265;23609;-81
2023/02/09 04:54:07;;;;;;;185.80;133.90;;;;;;;-5.05;71.15;102499.23;110396;1265;22003;-80
2023/02/09 04:56:41;;;;;;;152.70;112.30;;;;;;;-5.02;71.07;102495.33;110108;1265;21995;-79
2023/02/09 04:59:34;;;;;;;143.50;109.80;;;;;;;-5.01;70.91;102490.46;110296;1262;22288;-82
2023/02/09 05:02:16;;;;;;;160.20;108.00;;;;;;;-5.04;71.02;102492.00;110372;1259;21971;-79
2023/02/09 05:04:49;;;;;;;136.50;95.70;;;;;;;-5.05;70.99;102493.13;110814;1259;23594;-81
2023/02/09 05:07:30;;;;;;;128.70;85.40;;;;;;;-5.06;71.02;102485.74;110833;1259;23615;-79
2023/02/09 05:10:03;;;;;;;104.00;75.60;;;;;;;-5.08;70.99;102481.73;110117;1264;21979;-81
2023/02/09 05:12:48;;;;;;;99.70;70.80;;;;;;;-5.13;71.05;102476.02;110956;1260;21968;-79
2023/02/09 05:15:21;;;;;;;103.20;73.90;;;;;;;-5.18;71.09;102474.69;110914;1260;21975;-80
2023/02/09 05:17:53;;;;;;;104.80;74.40;;;;;;;-5.23;71.37;102475.71;110979;1260;23697;-81
2023/02/09 05:20:27;;;;;;;105.10;74.10;;;;;;;-5.27;71.33;102475.81;110769;1260;23586;-81
2023/02/09 05:23:04;;;;;;;98.70;69.70;;;;;;;-5.32;71.37;102479.12;110555;1260;23693;-80
2023/02/09 05:25:46;;;;;;;100.60;72.60;;;;;;;-5.38;71.55;102481.29;111149;1256;23751;-80
2023/02/09 05:28:43;;;;;;;109.50;78.10;;;;;;;-5.41;71.53;102476.85;110588;1260;22000;-81
2023/02/09 05:31:17;;;;;;;108.70;73.90;;;;;;;-5.45;71.76;102482.35;110398;1266;23628;-82
2023/02/09 05:34:06;;;;;;;109.90;74.60;;;;;;;-5.47;71.90;102484.96;110055;1268;22701;-80
2023/02/09 05:36:42;;;;;;;120.90;80.10;;;;;;;-5.48;71.84;102484.38;110108;1265;23036;-80
2023/02/09 05:39:18;;;;;;;133.40;85.30;;;;;;;-5.48;71.89;102482.17;110370;1267;22827;-81
2023/02/09 05:44:37;;;;;;;114.30;78.80;;;;;;;-5.47;72.07;102473.27;110111;1266;22996;-81
2023/02/09 05:47:11;;;;;;;115.50;82.00;;;;;;;-5.47;72.17;102470.02;110062;1263;21966;-80
2023/02/09 05:49:51;;;;;;;109.20;78.10;;;;;;;-5.47;72.20;102471.59;109998;1268;22026;-79
2023/02/09 05:52:32;;;;;;;116.80;81.30;;;;;;;-5.46;72.17;102473.81;109559;1273;22006;-78
2023/02/09 05:55:16;;;;;;;131.60;87.40;;;;;;;-5.46;72.20;102472.64;109264;1273;22057;-80
2023/02/09 05:58:00;;;;;;;112.60;78.70;;;;;;;-5.43;72.25;102468.71;109233;1276;22039;-80
2023/02/09 06:00:31;;;;;;;122.60;81.50;;;;;;;-5.40;72.29;102467.70;108956;1276;21987;-80
2023/02/09 06:03:12;;;;;;;111.90;81.10;;;;;;;-5.40;72.40;102462.33;109052;1276;23000;-79
2023/02/09 06:05:47;;;;;;;120.40;80.10;;;;;;;-5.40;72.36;102456.37;109289;1275;22008;-79
2023/02/09 06:08:19;;;;;;;116.80;81.90;;;;;;;-5.39;72.32;102458.80;109628;1263;23694;-80
2023/02/09 06:10:56;;;;;;;102.70;77.80;;;;;;;-5.38;72.40;102464.11;110428;1261;24300;-78
2023/02/09 06:13:32;;;;;;;116.50;79.10;;;;;;;-5.37;72.48;102462.18;110738;1261;21973;-80
2023/02/09 06:16:02;;;;;;;108.40;77.60;;;;;;;-5.36;72.53;102462.41;110766;1261;23744;-78
2023/02/09 06:18:35;;;;;;;117.00;81.10;;;;;;;-5.28;72.83;102459.62;109866;1265;21970;-81
2023/02/09 06:21:05;;;;;;;;;;;;;;;-5.17;72.87;102462.70;110116;1266;21953;-78
2023/02/09 06:23:38;;;;;;;;;;;;;;;-5.22;72.59;102466.80;110616;1265;22474;-80
2023/02/09 06:26:21;;;;;;;114.10;77.50;;;;;;;-5.31;72.58;102470.84;110396;1265;23603;-82
2023/02/09 06:29:18;;;;;;;129.20;83.50;;;;;;;-5.34;72.64;102472.73;110433;1264;21972;-80
2023/02/09 06:31:56;;;;;;;122.60;82.30;;;;;;;-5.31;72.70;102470.67;110501;1264;23110;-79
2023/02/09 06:34:27;;;;;;;120.30;84.00;;;;;;;-5.27;72.60;102472.93;110392;1264;22028;-79
2023/02/09 06:37:01;;;;;;;115.30;80.40;;;;;;;-5.25;72.48;102473.39;111031;1255;22638;-80
2023/02/09 06:39:34;;;;;;;142.50;93.80;;;;;;;-5.23;72.57;102473.55;111309;1255;24961;-81
2023/02/09 06:42:12;;;;;;;122.90;85.90;;;;;;;-5.21;72.43;102467.70;111046;1255;21965;-81
2023/02/09 06:44:43;;;;;;;123.60;83.70;;;;;;;-5.20;72.55;102469.81;111348;1255;22731;-79
2023/02/09 06:47:19;;;;;;;140.50;93.50;;;;;;;-5.19;72.56;102469.71;111406;1255;22922;-78
2023/02/09 06:49:55;;;;;;;140.70;92.50;;;;;;;-5.17;72.52;102476.43;110758;1261;24877;-78
2023/02/09 06:52:34;;;;;;;147.50;99.00;;;;;;;-5.15;72.46;102478.60;110799;1262;23589;-78
2023/02/09 06:55:09;;;;;;;120.20;84.80;;;;;;;-5.14;72.51;102475.92;110063;1269;23602;-78
2023/02/09 06:57:40;;;;;;;129.30;90.50;;;;;;;-5.13;72.36;102471.40;109945;1267;22927;-79
2023/02/09 07:00:12;;;;;;;145.50;96.40;;;;;;;-5.10;72.42;102468.17;109621;1268;21994;-78
2023/02/09 07:02:45;;;;;;;139.50;92.60;;;;;;;-5.09;72.45;102466.07;109834;1269;23045;-79
2023/02/09 07:05:17;;;;;;;130.90;88.20;;;;;;;-5.06;72.51;102465.56;109811;1269;23012;-79
2023/02/09 07:07:50;;;;;;;129.50;92.10;;;;;;;-5.02;72.49;102466.65;110150;1261;21959;-79
2023/02/09 07:13:15;;;;;;;126.00;86.20;;;;;;;-4.96;72.38;102464.13;110665;1255;22829;-79
2023/02/09 07:15:58;;;;;;;134.60;88.20;;;;;;;-4.93;72.42;102462.27;111192;1255;23020;-77
2023/02/09 07:18:35;;;;;;;125.90;84.40;;;;;;;-4.89;72.45;102459.61;110472;1261;23604;-80
2023/02/09 07:21:18;;;;;;;134.00;90.90;;;;;;;-4.84;72.41;102457.49;110603;1261;21975;-80
2023/02/09 07:23:53;;;;;;;164.20;107.80;;;;;;;-4.81;72.43;102458.52;110892;1261;22013;-79
2023/02/09 07:26:25;;;;;;;130.10;89.30;;;;;;;-4.75;72.45;102462.47;110943;1261;21982;-79
2023/02/09 07:28:55;;;;;;;;;;;;;;;-4.68;72.36;102458.27;110598;1266;22041;-80
2023/02/09 07:31:26;;;;;;;139.40;86.60;;;;;;;-4.68;72.41;102457.55;110410;1266;22106;-78
2023/02/09 07:33:58;;;;;;;125.50;87.80;;;;;;;-4.64;72.48;102454.91;109898;1266;23055;-79
2023/02/09 07:36:29;;;;;;;125.90;82.50;;;;;;;-4.54;72.50;102448.55;110419;1260;21975;-79
2023/02/09 07:39:04;;;;;;;122.70;87.70;;;;;;;-4.45;72.38;102444.30;110603;1260;21958;-79
2023/02/09 07:41:36;;;;;;;123.40;79.90;;;;;;;-4.35;72.37;102450.27;110809;1258;22114;-79
2023/02/09 07:44:09;;;;;;;138.70;86.90;;;;;;;-4.27;72.24;102444.48;110502;1260;21979;-78
2023/02/09 07:46:39;;;;;;;119.00;81.30;;;;;;;-4.17;72.17;102444.15;110838;1260;23689;-79
2023/02/09 07:49:09;;;;;;;111.90;77.00;;;;;;;-4.08;71.95;102442.10;110609;1260;22716;-81
2023/02/09 07:51:43;;;;;;;104.90;75.30;;;;;;;-4.01;71.88;102436.55;110668;1260;22049;-78
2023/02/09 07:54:13;;;;;;;118.50;81.20;;;;;;;-3.92;71.88;102436.52;110835;1255;22036;-77
2023/02/09 07:56:44;;;;;;;118.90;80.60;;;;;;;-3.81;71.83;102435.42;111218;1255;21968;-78
2023/02/09 07:59:26;;;;;;;120.00;81.40;;;;;;;-3.71;71.71;102435.09;111200;1251;21950;-81
2023/02/09 08:02:39;;;;;;;129.00;84.80;;;;;;;-3.61;71.46;102433.27;111583;1255;21956;-87
2023/02/09 08:05:59;;;;;;;126.00;85.10;;;;;;;-3.50;71.50;102432.14;111343;1255;21978;-84
2023/02/09 08:08:43;;;;;;;125.80;82.30;;;;;;;-3.35;71.48;102435.33;111143;1261;21972;-84
2023/02/09 08:11:47;;;;;;;130.60;82.50;;;;;;;-3.19;71.34;102436.98;110645;1261;21966;-77
2023/02/09 08:14:37;;;;;;;123.30;83.40;;;;;;;-3.03;71.30;102437.14;110743;1260;23638;-76
2023/02/09 08:17:19;;;;;;;125.00;82.10;;;;;;;-2.82;71.15;102437.20;110626;1260;21980;-77
2023/02/09 08:20:13;;;;;;;112.90;76.20;;;;;;;-2.60;70.92;102433.80;110053;1266;23374;-76
2023/02/09 08:23:01;;;;;;;113.30;82.00;;;;;;;-2.41;70.69;102438.36;109801;1254;21967;-77
2023/02/09 08:25:36;;;;;;;106.20;74.90;;;;;;;-2.14;70.51;102437.89;110119;1262;23715;-77
2023/02/09 08:28:07;;;;;;;112.00;78.80;;;;;;;-1.89;69.61;102433.31;110661;1262;22013;-81
2023/02/09 08:30:46;;;;;;;107.60;75.30;;;;;;;-1.60;69.87;102435.48;109836;1266;23118;-77
2023/02/09 08:33:18;;;;;;;108.90;78.20;;;;;;;-1.28;69.28;102432.63;110054;1267;22022;-78
2023/02/09 08:35:52;;;;;;;111.20;78.60;;;;;;;-1.01;69.10;102426.64;109348;1272;22757;-78
2023/02/09 08:38:24;;;;;;;112.00;76.70;;;;;;;-0.66;69.45;102423.30;109668;1268;21990;-78
2023/02/09 08:41:05;;;;;;;113.20;80.10;;;;;;;-0.27;68.91;102420.08;109999;1268;23749;-78
2023/02/09 08:43:39;;;;;;;94.20;71.90;;;;;;;0.02;67.90;102415.94;110135;1267;21994;-78
2023/02/09 08:46:16;;;;;;;102.80;73.10;;;;;;;0.20;66.10;102409.25;109881;1268;23679;-77
2023/02/09 08:48:47;;;;;;;99.00;73.60;;;;;;;0.42;65.95;102412.45;110058;1268;21974;-78
2023/02/09 08:51:18;;;;;;;106.80;76.60;;;;;;;0.62;65.13;102416.77;109786;1268;23628;-77
2023/02/09 08:57:00;;;;;;;101.50;74.70;;;;;;;0.89;64.29;102415.34;110633;1261;21970;-78
2023/02/09 09:00:05;;;;;;;101.20;75.50;;;;;;;1.02;63.34;102407.91;110600;1261;21957;-78
2023/02/09 09:02:49;;;;;;;100.60;74.70;;;;;;;1.05;61.92;102404.73;110882;1262;22803;-77
2023/02/09 09:05:22;;;;;;;106.00;77.90;;;;;;;1.22;62.70;102402.58;110723;1261;22027;-78
2023/02/09 09:08:00;;;;;;;102.90;77.10;;;;;;;1.43;62.19;102396.41;110595;1261;22036;-76
2023/02/09 09:10:39;;;;;;;97.00;74.50;;;;;;;1.55;62.03;102397.45;109744;1268;22070;-79
2023/02/09 09:13:11;;;;;;;92.60;69.20;;;;;;;1.77;62.02;102388.55;109427;1271;23006;-77
2023/02/09 09:15:47;;;;;;;87.10;67.10;;;;;;;1.89;61.08;102389.45;109522;1269;21999;-78
2023/02/09 09:18:24;;;;;;;91.10;69.20;;;;;;;1.90;60.60;102385.86;109854;1268;23031;-78
2023/02/09 09:20:57;;;;;;;86.40;67.80;;;;;;;1.92;59.96;102388.67;109640;1269;22581;-78
2023/02/09 09:23:30;;;;;;;98.20;74.60;;;;;;;2.03;60.29;102386.91;109796;1268;22072;-78
2023/02/09 09:26:01;;;;;;;81.70;67.80;;;;;;;2.16;60.20;102382.15;109954;1268;23201;-78
2023/02/09 09:28:36;;;;;;;98.40;72.90;;;;;;;2.14;58.79;102380.38;109950;1262;22144;-78
2023/02/09 09:31:21;;;;;;;92.50;64.40;;;;;;;1.96;57.65;102380.20;110875;1256;23691;-79
2023/02/09 09:33:54;;;;;;;88.50;66.10;;;;;;;1.71;57.23;102380.48;110504;1262;21986;-78
2023/02/09 09:36:30;;;;;;;81.80;62.50;;;;;;;1.58;57.66;102380.73;110534;1262;22645;-78
2023/02/09 09:39:00;;;;;;;85.00;66.80;;;;;;;1.52;57.75;102383.48;110062;1269;21942;-78
2023/02/09 09:41:36;;;;;;;88.60;67.30;;;;;;;1.49;57.84;102378.42;109545;1273;21660;-78
2023/02/09 09:44:40;;;;;;;94.40;64.50;;;;;;;1.50;57.68;102377.92;109217;1276;21966;-78
2023/02/09 09:47:19;;;;;;;95.40;71.60;;;;;;;1.52;57.90;102372.48;109001;1276;21992;-79
2023/02/09 09:49:51;;;;;;;72.00;56.20;;;;;;;1.66;57.90;102372.23;108996;1276;23739;-78
2023/02/09 09:52:37;;;;;;;;;;;;;;;1.77;57.42;102367.08;109477;1275;22121;-78
2023/02/09 09:55:30;;;;;;;69.00;50.50;;;;;;;1.79;57.49;102363.39;109048;1276;23679;-79
2023/02/09 09:58:07;;;;;;;70.90;55.30;;;;;;;1.82;56.92;102359.17;109796;1266;21939;-77
2023/02/09 10:00:44;;;;;;;67.80;51.60;;;;;;;1.90;57.05;102357.36;110797;1261;21943;-78
2023/02/09 10:03:23;;;;;;;69.40;53.40;;;;;;;2.09;56.97;102357.21;110460;1262;23030;-78
2023/02/09 10:06:18;;;;;;;71.80;54.40;;;;;;;2.29;57.04;102361.57;110573;1262;22416;-78
2023/02/09 10:08:59;;;;;;;77.40;57.70;;;;;;;2.45;56.55;102358.08;110678;1262;21973;-79
2023/02/09 10:12:07;;;;;;;70.50;55.80;;;;;;;2.61;56.40;102352.83;110770;1262;21991;-77
2023/02/09 10:14:38;;;;;;;68.30;49.70;;;;;;;2.81;56.24;102344.77;109947;1255;22001;-76
2023/02/09 10:17:14;;;;;;;63.00;50.30;;;;;;;2.97;55.75;102337.95;110187;1266;23030;-79
2023/02/09 10:20:07;;;;;;;71.40;52.80;;;;;;;3.12;55.57;102330.58;110224;1266;23812;-78
2023/02/09 10:22:37;;;;;;;59.90;48.00;;;;;;;3.38;55.39;102326.39;110635;1261;23594;-78
2023/02/09 10:25:59;;;;;;;60.20;45.10;;;;;;;3.58;54.54;102328.74;110974;1261;23610;-80
2023/02/09 10:28:52;;;;;;;54.80;44.70;;;;;;;3.73;53.94;102323.91;110555;1261;21975;-81
2023/02/09 10:31:58;;;;;;;58.60;44.40;;;;;;;3.89;53.73;102322.37;110902;1261;23059;-78
2023/02/09 10:34:47;;;;;;;57.60;44.00;;;;;;;4.06;52.84;102321.69;110954;1261;23718;-79
2023/02/09 10:37:33;;;;;;;55.10;45.10;;;;;;;4.22;52.55;102313.38;110587;1261;23773;-79
2023/02/09 10:40:26;;;;;;;64.30;47.80;;;;;;;4.47;52.36;102319.05;110950;1256;21964;-79
2023/02/09 10:43:13;;;;;;;;;;;;;;;;;;;;;
2023/02/09 10:45:47;;;;;;;56.00;44.50;;;;;;;4.93;51.07;102310.20;110734;1261;22088;-77
2023/02/09 10:48:21;;;;;;;59.70;46.20;;;;;;;5.28;51.37;102306.11;110492;1260;23016;-78
2023/02/09 10:51:06;;;;;;;59.30;47.00;;;;;;;5.88;51.05;102306.95;110605;1259;21992;-79
2023/02/09 10:53:58;;;;;;;47.70;40.70;;;;;;;6.70;50.18;102305.63;110448;1266;21960;-79
2023/02/09 10:56:49;;;;;;;57.50;48.10;;;;;;;7.15;46.80;102299.10;110065;1266;22002;-78
2023/02/09 10:59:24;;;;;;;43.90;38.40;;;;;;;7.78;47.44;102295.84;110407;1266;23761;-78
2023/02/09 11:02:01;;;;;;;50.40;43.30;;;;;;;8.30;43.84;102295.88;110277;1266;22272;-79
2023/02/09 11:04:40;;;;;;;54.60;43.10;;;;;;;8.73;43.47;102291.80;110447;1262;22049;-78
2023/02/09 11:07:19;;;;;;;51.00;40.30;;;;;;;9.02;41.82;102289.91;110255;1267;21981;-79
2023/02/09 11:09:51;;;;;;;48.40;38.30;;;;;;;9.42;42.49;102291.08;110216;1266;21978;-79
2023/02/09 11:12:24;;;;;;;57.20;50.90;;;;;;;10.09;42.15;102291.38;109699;1269;22052;-80
2023/02/09 11:14:58;;;;;;;46.00;41.10;;;;;;;10.90;41.80;102287.39;110163;1268;23795;-78
2023/02/09 11:17:38;;;;;;;43.00;36.50;;;;;;;11.39;38.69;102289.21;109214;1272;23672;-79
2023/02/09 11:20:17;;;;;;;49.60;42.60;;;;;;;11.73;38.83;102285.36;109436;1271;21980;-79
2023/02/09 11:23:31;;;;;;;44.00;39.00;;;;;;;12.28;38.17;102283.80;109692;1265;21982;-79
2023/02/09 11:26:08;;;;;;;47.70;38.80;;;;;;;12.38;37.50;102278.59;109947;1268;22754;-79
2023/02/09 11:28:55;;;;;;;37.60;33.50;;;;;;;11.86;36.00;102274.38;109953;1268;21991;-80
2023/02/09 11:32:06;;;;;;;42.90;37.00;;;;;;;11.02;36.57;102263.77;110752;1262;24077;-78
2023/02/09 11:35:17;;;;;;;39.50;34.10;;;;;;;10.10;36.71;102261.27;110886;1256;21963;-82
2023/02/09 11:37:55;;;;;;;39.20;33.90;;;;;;;8.80;36.91;102262.45;111162;1256;22887;-82
2023/02/09 11:40:37;;;;;;;42.40;36.10;;;;;;;7.77;38.07;102251.10;111400;1256;22090;-79
2023/02/09 11:43:10;;;;;;;43.90;39.20;;;;;;;6.96;39.24;102250.99;111601;1254;23429;-80
2023/02/09 11:46:02;;;;;;;43.00;37.40;;;;;;;6.46;40.19;102254.39;111269;1254;22030;-82
2023/02/09 11:48:43;;;;;;;45.20;39.10;;;;;;;5.90;40.83;102252.54;111156;1256;21964;-81
2023/02/09 11:51:21;;;;;;;46.20;37.20;;;;;;;5.53;41.87;102251.73;111289;1255;22885;-81
2023/02/09 11:54:20;;;;;;;51.70;40.90;;;;;;;5.23;42.29;102245.61;110757;1265;22035;-83
2023/02/09 11:57:00;;;;;;;42.10;34.80;;;;;;;4.85;42.98;102242.10;110599;1264;21992;-81
2023/02/09 11:59:55;;;;;;;40.50;34.60;;;;;;;4.56;43.49;102237.48;110953;1262;22895;-81
2023/02/09 12:03:15;;;;;;;39.00;31.50;;;;;;;4.24;43.96;102234.84;110750;1259;24043;-80
2023/02/09 12:05:56;;;;;;;;;;;;;;;;;;;;;
2023/02/09 12:08:51;;;;;;;40.90;33.40;;;;;;;3.62;45.10;102226.39;109472;1273;21984;-80
2023/02/09 12:11:42;;;;;;;41.90;32.90;;;;;;;3.48;45.57;102227.48;109193;1275;23753;-78
2023/02/09 12:14:58;;;;;;;41.10;31.20;;;;;;;3.43;46.00;102223.58;109368;1271;22036;-82
2023/02/09 12:17:33;;;;;;;46.70;34.20;;;;;;;3.39;46.42;102215.41;109393;1275;21990;-80
2023/02/09 12:20:23;;;;;;;40.20;31.40;;;;;;;3.33;46.33;102213.56;109355;1274;23087;-80